Time;durP1;ratioP1;P1;durP2;ratioP2;P2;SDS_P1;SDS_P2;PMS_P1;PMS_P2;Temp;Humidity;BMP_temperature;BMP_pressure;BME280_temperature;BME280_humidity;BME280_pressure;Samples;Min_cycle;Max_cycle;Signal;HPM_P1;HPM_P2
2023/11/16 00:00:42;;;;;;;2.28;1.00;;;;;;;;;;5082006;28;20062;-71
2023/11/16 00:03:10;;;;;;;1.38;0.80;;;9.90;94.30;;;;;;5081797;28;20023;-68
2023/11/16 00:05:36;;;;;;;2.95;0.77;;;10.00;91.00;;;;;;5081651;28;20024;-68
2023/11/16 00:08:07;;;;;;;2.45;0.73;;;9.90;88.70;;;;;;5081724;28;20071;-70
2023/11/16 00:10:37;;;;;;;0.47;0.47;;;10.00;87.80;;;;;;5081911;28;20036;-70
2023/11/16 00:13:04;;;;;;;1.60;0.80;;;9.90;86.30;;;;;;5081552;28;20371;-70
2023/11/16 00:15:30;;;;;;;2.80;0.82;;;;;;;;;;5081833;28;20095;-70
2023/11/16 00:17:57;;;;;;;2.70;0.90;;;9.90;95.00;;;;;;5081678;28;20027;-69
2023/11/16 00:20:22;;;;;;;3.17;1.05;;;9.70;95.00;;;;;;5081521;28;20343;-70
2023/11/16 00:22:48;;;;;;;3.15;0.70;;;9.80;95.10;;;;;;5081252;28;20016;-70
2023/11/16 00:25:16;;;;;;;1.98;0.95;;;9.90;94.70;;;;;;5081200;28;20067;-69
2023/11/16 00:27:42;;;;;;;1.93;0.77;;;9.60;95.30;;;;;;5081227;28;20075;-70
2023/11/16 00:30:09;;;;;;;1.23;0.70;;;10.00;95.50;;;;;;5080393;28;20020;-69
2023/11/16 00:32:35;;;;;;;2.83;2.40;;;;;;;;;;5081272;28;20048;-70
2023/11/16 00:35:00;;;;;;;1.80;0.98;;;9.70;95.60;;;;;;5081408;28;20084;-70
2023/11/16 00:37:26;;;;;;;2.95;1.10;;;10.00;95.60;;;;;;5081335;28;20020;-70
2023/11/16 00:39:56;;;;;;;4.63;1.40;;;;;;;;;;5081384;28;20021;-70
2023/11/16 00:42:23;;;;;;;2.40;1.00;;;9.60;91.50;;;;;;5081458;28;20027;-70
2023/11/16 00:44:49;;;;;;;2.33;1.10;;;9.80;95.80;;;;;;5081305;28;20017;-70
2023/11/16 00:47:18;;;;;;;1.08;0.98;;;;;;;;;;5081420;28;20175;-71
2023/11/16 00:49:45;;;;;;;3.78;0.95;;;9.60;96.00;;;;;;5081345;28;20031;-69
2023/11/16 00:52:11;;;;;;;3.08;1.50;;;;;;;;;;5081463;28;20016;-71
2023/11/16 00:54:37;;;;;;;3.25;1.20;;;9.70;96.00;;;;;;5081262;28;20027;-71
2023/11/16 00:57:03;;;;;;;4.03;1.08;;;9.70;96.00;;;;;;5081129;28;20230;-70
2023/11/16 00:59:30;;;;;;;1.23;0.77;;;9.60;96.30;;;;;;5081330;28;20020;-70
2023/11/16 01:01:58;;;;;;;5.95;1.15;;;9.40;95.00;;;;;;5080726;28;20036;-70
2023/11/16 01:04:26;;;;;;;1.40;1.02;;;9.40;96.40;;;;;;5079712;28;20074;-72
2023/11/16 01:06:53;;;;;;;2.97;1.13;;;;;;;;;;5080908;28;20312;-70
2023/11/16 01:09:20;;;;;;;3.28;1.00;;;9.50;96.80;;;;;;5079446;28;20032;-70
2023/11/16 01:11:46;;;;;;;1.17;0.90;;;;;;;;;;5080683;28;20031;-70
2023/11/16 01:14:16;;;;;;;1.20;1.00;;;9.40;97.00;;;;;;5080734;28;20220;-71
2023/11/16 01:16:44;;;;;;;2.15;0.82;;;9.10;95.80;;;;;;5080627;28;20027;-71
2023/11/16 01:19:12;;;;;;;1.83;0.80;;;9.00;97.20;;;;;;5080576;28;20020;-71
2023/11/16 01:21:44;;;;;;;5.18;1.10;;;9.20;97.40;;;;;;5080500;28;20259;-71
2023/11/16 01:24:11;;;;;;;1.08;0.90;;;9.40;97.70;;;;;;5080289;28;20092;-71
2023/11/16 01:26:41;;;;;;;1.73;0.88;;;9.00;91.50;;;;;;5080593;28;20080;-71
2023/11/16 01:29:16;;;;;;;2.53;1.05;;;8.80;97.90;;;;;;5080556;28;20149;-71
2023/11/16 01:31:42;;;;;;;3.00;1.08;;;;;;;;;;5079391;28;20366;-71
2023/11/16 01:34:12;;;;;;;3.10;1.02;;;8.60;98.20;;;;;;5079057;28;20028;-70
2023/11/16 01:36:38;;;;;;;1.75;0.95;;;8.70;92.20;;;;;;5080435;28;20016;-70
2023/11/16 01:39:04;;;;;;;2.22;0.82;;;8.70;98.80;;;;;;5083293;28;20045;-71
2023/11/16 01:41:30;;;;;;;3.33;0.95;;;8.70;92.60;;;;;;5084534;28;20025;-70
2023/11/16 01:43:57;;;;;;;2.25;1.58;;;8.60;92.70;;;;;;5084474;28;20405;-71
2023/11/16 01:46:26;;;;;;;0.95;0.85;;;8.90;98.00;;;;;;5084530;28;20054;-72
2023/11/16 01:48:54;;;;;;;1.88;0.70;;;8.80;97.90;;;;;;5084212;28;20028;-70
2023/11/16 01:51:21;;;;;;;3.05;1.05;;;8.80;93.00;;;;;;5084468;28;20043;-70
2023/11/16 01:53:54;;;;;;;1.90;0.80;;;8.50;99.40;;;;;;5084174;28;20035;-71
2023/11/16 01:56:20;;;;;;;2.20;1.00;;;8.80;99.30;;;;;;5084225;28;20029;-70
2023/11/16 01:58:48;;;;;;;1.15;1.00;;;8.70;94.90;;;;;;5084262;28;20030;-71
2023/11/16 02:01:16;;;;;;;5.00;1.33;;;9.10;99.40;;;;;;5084394;28;20020;-70
2023/11/16 02:03:42;;;;;;;1.38;0.98;;;;;;;;;;5084207;28;20032;-71
2023/11/16 02:06:08;;;;;;;2.55;1.02;;;8.60;99.30;;;;;;5084276;28;20020;-71
2023/11/16 02:08:35;;;;;;;2.90;1.02;;;9.00;99.50;;;;;;5085148;28;20024;-71
2023/11/16 02:11:01;;;;;;;1.63;1.17;;;8.80;99.60;;;;;;5084590;28;20026;-69
2023/11/16 02:13:26;;;;;;;1.52;1.23;;;8.80;99.60;;;;;;5083241;28;20047;-70
2023/11/16 02:15:55;;;;;;;2.30;1.30;;;8.80;94.50;;;;;;5084238;28;20029;-70
2023/11/16 02:18:24;;;;;;;1.15;1.05;;;8.90;99.90;;;;;;5084329;28;20016;-70
2023/11/16 02:20:51;;;;;;;2.35;1.33;;;8.50;94.90;;;;;;5084844;28;20328;-69
2023/11/16 02:23:18;;;;;;;4.10;1.30;;;;;;;;;;5083892;28;20379;-69
2023/11/16 02:25:49;;;;;;;1.05;0.95;;;8.90;99.90;;;;;;5083750;28;20051;-70
2023/11/16 02:28:16;;;;;;;1.42;1.10;;;8.70;93.90;;;;;;5083991;28;20044;-69
2023/11/16 02:30:43;;;;;;;1.98;1.30;;;;;;;;;;5082553;28;20021;-70
2023/11/16 02:33:09;;;;;;;1.92;1.00;;;8.80;99.90;;;;;;5083702;28;20044;-70
2023/11/16 02:35:35;;;;;;;2.00;1.20;;;8.50;99.90;;;;;;5082434;28;20023;-70
2023/11/16 02:38:01;;;;;;;1.13;1.02;;;8.50;97.00;;;;;;5083578;28;20082;-70
2023/11/16 02:40:27;;;;;;;2.20;1.30;;;8.40;99.90;;;;;;5083760;28;20013;-70
2023/11/16 02:42:53;;;;;;;3.92;2.25;;;;;;;;;;5083632;28;20067;-70
2023/11/16 02:45:22;;;;;;;1.60;1.05;;;8.40;99.90;;;;;;5083378;28;20008;-70
2023/11/16 02:47:48;;;;;;;1.80;1.02;;;;;;;;;;5083556;28;20048;-72
2023/11/16 02:50:15;;;;;;;1.58;1.38;;;8.20;99.90;;;;;;5083212;28;20032;-72
2023/11/16 02:52:44;;;;;;;3.60;1.25;;;8.30;99.90;;;;;;5083583;28;20055;-70
2023/11/16 02:55:10;;;;;;;1.40;1.02;;;;;;;;;;5083314;28;20351;-70
2023/11/16 02:57:38;;;;;;;2.35;1.30;;;8.10;99.90;;;;;;5083346;28;20267;-70
2023/11/16 03:00:04;;;;;;;3.33;1.15;;;7.90;97.50;;;;;;5083082;28;20070;-70
2023/11/16 03:02:32;;;;;;;1.05;0.98;;;;;;;;;;5083058;28;20025;-70
2023/11/16 03:04:58;;;;;;;5.50;0.98;;;8.00;99.90;;;;;;5083105;28;20027;-70
2023/11/16 03:07:24;;;;;;;2.90;1.00;;;;;;;;;;5083017;28;20220;-70
2023/11/16 03:09:52;;;;;;;1.15;0.90;;;8.10;99.90;;;;;;5082992;28;20048;-70
2023/11/16 03:12:21;;;;;;;1.17;1.08;;;8.10;99.90;;;;;;5083247;28;20063;-70
2023/11/16 03:14:47;;;;;;;3.75;1.10;;;8.10;99.90;;;;;;5083175;28;20035;-70
2023/11/16 03:17:13;;;;;;;4.65;1.20;;;;;;;;;;5083160;28;20013;-69
2023/11/16 03:19:41;;;;;;;1.88;1.23;;;7.90;96.10;;;;;;5082787;28;20324;-69
2023/11/16 03:22:07;;;;;;;2.47;1.20;;;7.90;99.90;;;;;;5082841;28;20016;-70
2023/11/16 03:24:33;;;;;;;3.20;0.93;;;8.20;99.90;;;;;;5082715;28;20194;-72
2023/11/16 03:26:59;;;;;;;0.93;0.80;;;7.80;99.90;;;;;;5082603;28;20260;-70
2023/11/16 03:29:25;;;;;;;3.25;1.05;;;;;;;;;;5082530;28;20036;-72
2023/11/16 03:31:51;;;;;;;1.20;1.10;;;7.60;99.90;;;;;;5082805;28;20017;-73
2023/11/16 03:34:17;;;;;;;2.00;1.15;;;7.70;99.90;;;;;;5081222;28;20026;-70
2023/11/16 03:36:42;;;;;;;1.58;1.20;;;7.70;99.00;;;;;;5082497;28;20253;-70
2023/11/16 03:39:08;;;;;;;3.95;1.13;;;7.60;99.90;;;;;;5081254;28;20028;-71
2023/11/16 03:41:34;;;;;;;3.15;1.27;;;;;;;;;;5082293;28;20031;-71
2023/11/16 03:44:00;;;;;;;2.10;1.38;;;7.90;98.30;;;;;;5082438;28;20384;-71
2023/11/16 03:46:26;;;;;;;1.88;1.17;;;7.60;99.60;;;;;;5081061;28;20047;-71
2023/11/16 03:48:52;;;;;;;6.15;1.30;;;7.60;99.90;;;;;;5082483;28;20055;-71
2023/11/16 03:51:18;;;;;;;1.17;1.08;;;;;;;;;;5082369;28;20016;-73
2023/11/16 03:53:44;;;;;;;1.70;1.00;;;;;;;;;;5082444;28;20078;-70
2023/11/16 03:56:10;;;;;;;5.50;1.40;;;;;;;;;;5081987;28;20025;-71
2023/11/16 03:58:37;;;;;;;3.38;1.40;;;7.10;99.90;;;;;;5081812;28;20249;-70
2023/11/16 04:01:03;;;;;;;2.72;1.58;;;7.20;99.90;;;;;;5081494;28;20127;-70
2023/11/16 04:03:29;;;;;;;3.58;1.27;;;;;;;;;;5081829;28;20020;-70
2023/11/16 04:05:55;;;;;;;3.00;1.65;;;;;;;;;;5081964;28;20089;-71
2023/11/16 04:08:21;;;;;;;5.55;1.80;;;7.10;99.90;;;;;;5081848;28;20316;-71
2023/11/16 04:10:47;;;;;;;10.25;1.42;;;;;;;;;;5081714;28;20072;-72
2023/11/16 04:13:13;;;;;;;5.95;1.55;;;6.70;99.90;;;;;;5081806;28;20023;-72
2023/11/16 04:15:39;;;;;;;5.43;1.77;;;7.10;99.90;;;;;;5081647;28;20017;-72
2023/11/16 04:18:06;;;;;;;5.18;2.40;;;6.90;99.90;;;;;;5082056;28;20043;-73
2023/11/16 04:20:32;;;;;;;2.30;1.73;;;6.80;99.90;;;;;;5081788;28;20016;-72
2023/11/16 04:22:58;;;;;;;2.30;1.30;;;;;;;;;;5080469;28;20032;-74
2023/11/16 04:25:27;;;;;;;1.42;1.20;;;6.80;99.90;;;;;;5081640;28;20108;-72
2023/11/16 04:27:58;;;;;;;;;;;6.90;99.10;;;;;;5082165;28;20036;-71
2023/11/16 04:30:26;;;;;;;4.18;1.20;;;;;;;;;;5081722;28;19924;-71
2023/11/16 04:32:52;;;;;;;2.88;1.40;;;6.80;99.90;;;;;;5080267;28;20073;-72
2023/11/16 04:35:20;;;;;;;2.15;1.52;;;;;;;;;;5081531;28;20323;-71
2023/11/16 04:37:47;;;;;;;2.60;1.50;;;7.00;99.90;;;;;;5081361;28;20062;-71
2023/11/16 04:40:13;;;;;;;3.60;1.48;;;7.00;99.90;;;;;;5080204;28;20027;-71
2023/11/16 04:42:43;;;;;;;7.50;1.40;;;7.00;99.10;;;;;;5080063;28;20035;-71
2023/11/16 04:45:14;;;;;;;3.75;1.50;;;7.30;99.90;;;;;;5081509;28;20093;-69
2023/11/16 04:47:40;;;;;;;4.22;1.10;;;6.90;99.90;;;;;;5081024;28;20044;-71
2023/11/16 04:50:07;;;;;;;1.42;1.20;;;6.20;99.00;;;;;;5081058;28;20224;-68
2023/11/16 04:52:36;;;;;;;2.22;1.45;;;7.00;99.30;;;;;;5081042;28;20340;-70
2023/11/16 04:55:01;;;;;;;4.85;1.60;;;6.90;99.90;;;;;;5081005;28;20328;-69
2023/11/16 04:57:28;;;;;;;2.72;1.38;;;7.00;99.90;;;;;;5081073;28;20032;-70
2023/11/16 04:59:54;;;;;;;4.43;1.92;;;7.00;99.90;;;;;;5080952;28;20339;-71
2023/11/16 05:02:20;;;;;;;3.78;1.50;;;;;;;;;;5080744;28;20020;-71
2023/11/16 05:04:46;;;;;;;4.55;1.30;;;;;;;;;;5080959;28;20035;-70
2023/11/16 05:07:13;;;;;;;1.80;1.23;;;7.00;99.90;;;;;;5080641;28;20016;-69
2023/11/16 05:09:38;;;;;;;1.45;1.30;;;7.20;99.90;;;;;;5081068;28;20235;-72
2023/11/16 05:12:05;;;;;;;2.35;1.38;;;7.00;99.90;;;;;;5080342;28;20020;-71
2023/11/16 05:14:31;;;;;;;3.85;1.45;;;;;;;;;;5080353;28;20328;-72
2023/11/16 05:16:57;;;;;;;2.20;1.13;;;7.00;99.90;;;;;;5081154;28;20069;-70
2023/11/16 05:19:24;;;;;;;2.08;1.20;;;;;;;;;;5080679;28;20239;-71
2023/11/16 05:21:50;;;;;;;5.65;1.38;;;;;;;;;;5080480;28;20087;-71
2023/11/16 05:24:18;;;;;;;1.90;1.35;;;;;;;;;;5080478;28;20359;-71
2023/11/16 05:26:44;;;;;;;2.05;1.17;;;6.90;99.90;;;;;;5079529;28;20028;-71
2023/11/16 05:29:10;;;;;;;2.90;1.73;;;;;;;;;;5080056;28;20028;-73
2023/11/16 05:31:36;;;;;;;2.63;1.48;;;6.90;99.90;;;;;;5080092;28;20088;-79
2023/11/16 05:34:03;;;;;;;3.45;1.63;;;;;;;;;;5079986;28;20324;-73
2023/11/16 05:36:29;;;;;;;2.45;1.75;;;6.70;99.90;;;;;;5079856;28;20061;-72
2023/11/16 05:38:58;;;;;;;3.75;1.88;;;7.10;99.90;;;;;;5080156;28;20028;-73
2023/11/16 05:41:24;;;;;;;1.85;1.15;;;6.80;99.90;;;;;;5080477;28;20040;-72
2023/11/16 05:43:50;;;;;;;2.85;1.77;;;6.80;99.90;;;;;;5080674;28;20137;-71
2023/11/16 05:46:16;;;;;;;2.70;1.70;;;;;;;;;;5080385;28;20025;-72
2023/11/16 05:48:41;;;;;;;1.98;1.70;;;7.00;99.90;;;;;;5080502;28;20036;-72
2023/11/16 05:51:07;;;;;;;3.83;1.77;;;;;;;;;;5079974;28;20243;-71
2023/11/16 05:53:36;;;;;;;2.50;1.75;;;7.20;99.90;;;;;;5080158;28;20028;-71
2023/11/16 05:56:02;;;;;;;2.20;1.63;;;6.90;99.90;;;;;;5080016;28;20020;-71
2023/11/16 05:58:29;;;;;;;2.15;1.88;;;7.00;99.90;;;;;;5080343;28;20104;-72
2023/11/16 06:00:55;;;;;;;6.05;1.60;;;;;;;;;;5080227;28;20096;-72
2023/11/16 06:03:26;;;;;;;3.08;2.17;;;7.00;99.90;;;;;;5080222;28;20032;-72
2023/11/16 06:05:53;;;;;;;3.30;1.77;;;;;;;;;;5063932;28;20333;-71
2023/11/16 06:08:20;;;;;;;5.50;2.08;;;;;;;;;;5058772;28;20110;-71
2023/11/16 06:10:46;;;;;;;3.78;1.80;;;;;;;;;;5058577;28;20021;-72
2023/11/16 06:13:12;;;;;;;2.08;1.60;;;;;;;;;;5058423;28;20013;-72
2023/11/16 06:15:38;;;;;;;2.42;2.05;;;;;;;;;;5058661;28;20098;-72
2023/11/16 06:18:04;;;;;;;7.47;2.22;;;7.00;99.90;;;;;;5059659;28;20071;-72
2023/11/16 06:20:30;;;;;;;7.43;3.45;;;7.30;99.90;;;;;;5058586;28;20391;-71
2023/11/16 06:22:56;;;;;;;4.97;1.85;;;6.80;99.90;;;;;;5058720;28;20113;-71
2023/11/16 06:25:22;;;;;;;3.65;2.17;;;6.70;99.90;;;;;;5061556;28;20048;-72
2023/11/16 06:27:48;;;;;;;2.70;2.30;;;;;;;;;;5062825;28;20037;-71
2023/11/16 06:30:14;;;;;;;3.45;2.20;;;6.80;99.90;;;;;;5063947;28;20009;-72
2023/11/16 06:32:42;;;;;;;4.32;2.20;;;6.90;99.90;;;;;;5063832;28;20024;-72
2023/11/16 06:35:08;;;;;;;2.15;1.70;;;6.90;99.90;;;;;;5063810;28;20016;-72
2023/11/16 06:37:34;;;;;;;3.05;1.70;;;7.00;99.90;;;;;;5063502;28;20067;-72
2023/11/16 06:39:59;;;;;;;2.05;1.83;;;7.00;99.90;;;;;;5063561;28;20009;-72
2023/11/16 06:42:26;;;;;;;3.33;1.70;;;6.80;99.90;;;;;;5063635;28;20029;-72
2023/11/16 06:44:53;;;;;;;5.97;1.52;;;;;;;;;;5062283;28;20027;-71
2023/11/16 06:47:19;;;;;;;4.07;1.48;;;7.20;99.90;;;;;;5063531;28;20048;-71
2023/11/16 06:49:48;;;;;;;3.80;1.75;;;;;;;;;;5063186;28;20036;-72
2023/11/16 06:52:14;;;;;;;2.78;1.50;;;7.00;99.90;;;;;;5063299;28;20320;-72
2023/11/16 06:54:42;;;;;;;2.33;1.63;;;7.00;99.90;;;;;;5063013;28;20063;-72
2023/11/16 06:57:09;;;;;;;1.80;1.35;;;6.90;99.90;;;;;;5062951;28;20096;-72
2023/11/16 06:59:35;;;;;;;3.35;1.63;;;7.00;99.90;;;;;;5063194;28;20024;-72
2023/11/16 07:02:01;;;;;;;2.30;1.50;;;7.00;99.90;;;;;;5063153;28;20021;-72
2023/11/16 07:04:27;;;;;;;7.18;1.48;;;;;;;;;;5062998;28;20024;-72
2023/11/16 07:06:53;;;;;;;2.40;1.63;;;6.90;99.90;;;;;;5063087;28;20052;-72
2023/11/16 07:09:23;;;;;;;3.35;2.00;;;7.00;99.90;;;;;;5062977;28;20240;-70
2023/11/16 07:11:52;;;;;;;2.45;1.70;;;6.90;99.90;;;;;;5062967;28;20017;-73
2023/11/16 07:14:19;;;;;;;3.95;1.70;;;7.30;99.90;;;;;;5063022;28;20070;-73
2023/11/16 07:16:45;;;;;;;3.60;2.75;;;7.50;99.90;;;;;;5062617;28;20108;-71
2023/11/16 07:19:12;;;;;;;2.88;1.77;;;7.40;99.90;;;;;;5062606;28;20513;-71
2023/11/16 07:21:38;;;;;;;3.63;2.38;;;;;;;;;;5061232;28;20033;-71
2023/11/16 07:24:05;;;;;;;4.13;2.00;;;7.90;99.80;;;;;;5062432;28;20040;-72
2023/11/16 07:26:31;;;;;;;4.18;1.88;;;;;;;;;;5062797;28;20060;-71
2023/11/16 07:28:57;;;;;;;2.78;1.70;;;8.30;99.90;;;;;;5062666;28;20041;-71
2023/11/16 07:31:24;;;;;;;2.35;1.63;;;8.40;99.90;;;;;;5062566;28;20025;-71
2023/11/16 07:33:51;;;;;;;3.30;2.10;;;;;;;;;;5062410;28;20535;-71
2023/11/16 07:36:23;;;;;;;2.53;1.52;;;8.50;99.90;;;;;;5061583;28;20055;-71
2023/11/16 07:38:52;;;;;;;2.75;1.80;;;;;;;;;;5062619;28;20187;-71
2023/11/16 07:41:18;;;;;;;1.52;1.42;;;8.90;99.90;;;;;;5062331;28;20031;-71
2023/11/16 07:43:43;;;;;;;2.53;1.73;;;8.70;99.90;;;;;;5062466;28;20080;-72
2023/11/16 07:46:09;;;;;;;2.60;2.10;;;9.00;99.90;;;;;;5060098;28;20037;-71
2023/11/16 07:48:35;;;;;;;4.95;1.70;;;;;;;;;;5062228;28;20193;-71
2023/11/16 07:51:01;;;;;;;6.65;2.00;;;9.10;99.90;;;;;;5060917;28;20030;-71
2023/11/16 07:53:27;;;;;;;2.28;1.73;;;9.30;99.90;;;;;;5062502;28;20013;-71
2023/11/16 07:55:54;;;;;;;6.15;2.05;;;9.30;99.90;;;;;;5062421;28;20088;-71
2023/11/16 07:58:22;;;;;;;1.60;1.50;;;;;;;;;;5062580;28;20028;-70
2023/11/16 08:00:55;;;;;;;4.07;1.38;;;9.70;99.90;;;;;;5062220;28;20379;-71
2023/11/16 08:06:07;;;;;;;2.42;0.98;;;10.10;94.40;;;;;;5062175;28;20143;-70
2023/11/16 08:08:34;;;;;;;2.20;1.00;;;10.10;97.30;;;;;;5062145;28;20104;-70
2023/11/16 08:10:59;;;;;;;3.92;1.52;;;10.50;98.90;;;;;;5061999;28;20084;-69
2023/11/16 08:13:26;;;;;;;1.05;0.80;;;;;;;;;;5062018;28;20094;-70
2023/11/16 08:15:56;;;;;;;3.13;1.15;;;10.60;93.90;;;;;;5061605;28;20027;-70
2023/11/16 08:18:22;;;;;;;1.58;0.93;;;10.90;96.90;;;;;;5072389;28;20039;-70
2023/11/16 08:20:48;;;;;;;0.90;0.70;;;11.30;96.20;;;;;;5081522;28;20017;-71
2023/11/16 08:23:14;;;;;;;3.33;1.17;;;10.80;95.50;;;;;;5081781;28;20024;-71
2023/11/16 08:25:40;;;;;;;1.52;1.00;;;;;;;;;;5081204;28;20044;-72
2023/11/16 08:28:10;;;;;;;2.05;1.15;;;;;;;;;;5081404;28;20040;-70
2023/11/16 08:30:37;;;;;;;3.00;1.00;;;;;;;;;;5081605;28;20220;-71
2023/11/16 08:33:03;;;;;;;3.70;1.00;;;11.30;93.70;;;;;;5081367;28;20016;-71
2023/11/16 08:35:30;;;;;;;1.30;0.70;;;;;;;;;;5081297;28;20043;-70
2023/11/16 08:37:56;;;;;;;1.90;0.93;;;;;;;;;;5081123;28;20254;-70
2023/11/16 08:40:23;;;;;;;1.15;0.70;;;;;;;;;;5081237;28;20028;-71
2023/11/16 08:42:50;;;;;;;1.05;0.57;;;11.50;84.80;;;;;;5081172;28;20016;-71
2023/11/16 08:45:19;;;;;;;4.05;0.95;;;11.80;80.40;;;;;;5081083;28;20389;-71
2023/11/16 08:47:46;;;;;;;1.58;1.02;;;11.90;89.90;;;;;;5081029;28;20133;-70
2023/11/16 08:50:13;;;;;;;3.42;0.93;;;12.00;86.00;;;;;;5080995;28;20044;-70
2023/11/16 08:52:46;;;;;;;0.98;0.80;;;12.10;90.80;;;;;;5080836;28;20327;-70
2023/11/16 08:55:12;;;;;;;3.28;1.00;;;12.60;78.60;;;;;;5080795;28;20029;-70
2023/11/16 08:57:42;;;;;;;1.40;1.00;;;12.50;79.30;;;;;;5080811;28;20016;-71
2023/11/16 09:00:27;;;;;;;1.88;1.23;;;12.30;88.70;;;;;;5080650;28;20362;-71
2023/11/16 09:02:54;;;;;;;3.22;0.85;;;12.60;87.80;;;;;;5080805;28;20373;-70
2023/11/16 09:05:21;;;;;;;1.27;0.52;;;12.40;74.10;;;;;;5080753;28;20095;-73
2023/11/16 09:07:48;;;;;;;0.60;0.60;;;;;;;;;;5079338;28;20426;-70
2023/11/16 09:10:14;;;;;;;1.92;0.60;;;12.60;77.00;;;;;;5079668;28;20012;-73
2023/11/16 09:12:45;;;;;;;1.55;1.13;;;12.70;84.90;;;;;;5080385;28;20035;-72
2023/11/16 09:15:11;;;;;;;1.15;0.90;;;13.30;84.50;;;;;;5080167;28;20088;-71
2023/11/16 09:17:37;;;;;;;1.88;0.80;;;13.30;70.30;;;;;;5079119;28;20024;-70
2023/11/16 09:20:10;;;;;;;0.88;0.60;;;13.70;81.80;;;;;;5080532;28;20193;-71
2023/11/16 09:22:39;;;;;;;1.92;0.68;;;13.70;68.70;;;;;;5080503;28;20024;-70
2023/11/16 09:25:15;;;;;;;2.55;0.93;;;13.80;68.40;;;;;;5080195;28;20052;-70
2023/11/16 09:27:42;;;;;;;2.58;0.80;;;14.10;80.20;;;;;;5080488;28;20079;-70
2023/11/16 09:30:14;;;;;;;1.85;0.88;;;13.60;69.50;;;;;;5080635;28;20032;-72
2023/11/16 09:32:40;;;;;;;3.55;1.05;;;13.80;80.20;;;;;;5080362;28;20347;-71
2023/11/16 09:35:09;;;;;;;3.70;1.05;;;13.40;70.70;;;;;;5080369;28;20032;-73
2023/11/16 09:37:36;;;;;;;1.35;0.70;;;12.70;67.50;;;;;;5080371;28;20052;-70
2023/11/16 09:40:05;;;;;;;0.73;0.60;;;13.60;79.90;;;;;;5080392;28;20025;-70
2023/11/16 09:42:33;;;;;;;;;;;13.50;68.40;;;;;;5080842;28;20024;-72
2023/11/16 09:45:02;;;;;;;1.77;0.80;;;13.40;80.50;;;;;;5080421;28;19946;-70
2023/11/16 09:47:30;;;;;;;;;;;13.50;68.80;;;;;;5080715;28;20032;-73
2023/11/16 09:49:58;;;;;;;3.67;0.70;;;13.50;67.90;;;;;;5080363;28;19913;-70
2023/11/16 09:52:26;;;;;;;2.28;1.65;;;13.60;79.40;;;;;;5080056;28;20216;-70
2023/11/16 09:54:56;;;;;;;2.05;0.82;;;13.40;78.80;;;;;;5080458;28;20043;-69
2023/11/16 09:57:23;;;;;;;2.47;0.50;;;13.40;78.90;;;;;;5080287;28;20029;-75
2023/11/16 09:59:52;;;;;;;0.95;0.55;;;;;;;;;;5082835;28;20051;-71
2023/11/16 10:02:23;;;;;;;1.52;0.60;;;13.40;66.50;;;;;;5084331;28;20066;-69
2023/11/16 10:04:50;;;;;;;2.95;1.10;;;13.40;66.40;;;;;;5084044;28;20052;-70
2023/11/16 10:07:20;;;;;;;2.70;0.43;;;13.40;65.80;;;;;;5083971;28;20035;-70
2023/11/16 10:09:46;;;;;;;3.78;0.80;;;;;;;;;;5083912;28;20120;-71
2023/11/16 10:12:12;;;;;;;3.17;0.60;;;13.80;73.50;;;;;;5084102;28;20023;-70
2023/11/16 10:14:51;;;;;;;1.63;0.60;;;13.40;65.30;;;;;;5083982;28;20029;-70
2023/11/16 10:17:21;;;;;;;3.65;0.52;;;13.40;77.00;;;;;;5084119;28;20119;-71
2023/11/16 10:19:47;;;;;;;0.55;0.40;;;13.30;76.70;;;;;;5083989;28;20021;-70
2023/11/16 10:22:13;;;;;;;1.65;0.70;;;13.30;77.10;;;;;;5083644;28;20020;-71
2023/11/16 10:24:40;;;;;;;1.52;0.80;;;;;;;;;;5083650;28;20048;-71
2023/11/16 10:27:06;;;;;;;1.17;0.60;;;;;;;;;;5083616;28;20029;-71
2023/11/16 10:29:32;;;;;;;1.58;0.50;;;13.80;76.60;;;;;;5083792;28;20028;-71
2023/11/16 10:32:02;;;;;;;1.77;0.50;;;13.60;69.50;;;;;;5083677;28;20369;-70
2023/11/16 10:34:29;;;;;;;2.33;0.60;;;13.70;75.50;;;;;;5083683;28;20020;-71
2023/11/16 10:36:55;;;;;;;1.75;0.80;;;14.00;72.30;;;;;;5083543;28;20021;-69
2023/11/16 10:39:24;;;;;;;1.17;0.63;;;13.80;68.70;;;;;;5083306;28;20035;-70
2023/11/16 10:41:52;;;;;;;0.90;0.63;;;13.90;63.50;;;;;;5083502;28;20087;-70
2023/11/16 10:44:18;;;;;;;2.05;0.73;;;14.10;70.00;;;;;;5083212;28;20024;-72
2023/11/16 10:46:44;;;;;;;2.30;0.77;;;13.70;74.90;;;;;;5083290;28;20019;-71
2023/11/16 10:49:11;;;;;;;0.95;0.60;;;;;;;;;;5083212;28;20055;-71
2023/11/16 10:51:38;;;;;;;1.58;0.50;;;13.80;74.60;;;;;;5083227;28;20016;-69
2023/11/16 10:54:06;;;;;;;1.25;0.60;;;14.10;74.50;;;;;;5083330;28;20380;-70
2023/11/16 10:56:37;;;;;;;1.63;0.80;;;13.80;74.30;;;;;;5083148;28;20103;-70
2023/11/16 10:59:05;;;;;;;3.42;1.00;;;13.90;75.50;;;;;;5083089;28;20328;-72
2023/11/16 11:01:34;;;;;;;3.75;0.70;;;14.00;70.80;;;;;;5083047;28;20028;-70
2023/11/16 11:04:01;;;;;;;2.85;0.60;;;14.00;63.10;;;;;;5083258;28;20123;-72
2023/11/16 11:06:28;;;;;;;1.05;0.77;;;13.80;74.90;;;;;;5082840;28;20077;-71
2023/11/16 11:08:57;;;;;;;0.95;0.63;;;14.10;74.40;;;;;;5082819;28;20036;-71
2023/11/16 11:11:27;;;;;;;1.35;0.70;;;14.10;74.10;;;;;;5081534;28;20087;-70
2023/11/16 11:14:05;;;;;;;2.50;0.43;;;14.10;73.80;;;;;;5083139;28;20083;-70
2023/11/16 11:16:31;;;;;;;1.38;0.40;;;14.10;73.40;;;;;;5082935;28;20386;-70
2023/11/16 11:18:57;;;;;;;1.73;0.70;;;14.30;62.00;;;;;;5082916;28;20324;-71
2023/11/16 11:21:23;;;;;;;2.28;0.60;;;14.40;73.40;;;;;;5083053;28;20017;-70
2023/11/16 11:24:05;;;;;;;2.72;0.60;;;14.00;73.00;;;;;;5083074;28;20012;-73
2023/11/16 11:26:41;;;;;;;0.75;0.40;;;14.10;73.30;;;;;;5082777;28;20051;-71
2023/11/16 11:29:10;;;;;;;1.52;0.77;;;14.40;73.20;;;;;;5083051;28;20039;-71
2023/11/16 11:32:10;;;;;;;2.03;0.82;;;14.40;63.30;;;;;;5082655;28;20024;-71
2023/11/16 11:34:39;;;;;;;0.98;0.60;;;14.20;60.90;;;;;;5080609;28;20078;-70
2023/11/16 11:37:10;;;;;;;3.40;0.85;;;;;;;;;;5082562;28;20114;-71
2023/11/16 11:39:45;;;;;;;2.95;0.75;;;14.30;60.80;;;;;;5082405;28;20016;-71
2023/11/16 11:42:12;;;;;;;1.63;0.60;;;14.80;65.00;;;;;;5082595;28;20036;-71
2023/11/16 11:44:51;;;;;;;2.90;0.63;;;14.30;67.00;;;;;;5082508;28;20205;-71
2023/11/16 11:47:20;;;;;;;3.42;0.80;;;14.60;69.00;;;;;;5082225;28;20035;-74
2023/11/16 11:49:48;;;;;;;3.47;1.08;;;14.50;59.90;;;;;;5083935;28;20110;-73
2023/11/16 11:52:16;;;;;;;2.88;0.93;;;14.80;60.20;;;;;;5083021;28;20029;-70
2023/11/16 11:54:45;;;;;;;3.00;0.90;;;14.70;71.40;;;;;;5082897;28;20020;-75
2023/11/16 11:57:11;;;;;;;4.07;0.90;;;;;;;;;;5082627;28;20370;-72
2023/11/16 11:59:37;;;;;;;3.00;0.70;;;;;;;;;;5082294;28;20052;-70
2023/11/16 12:02:11;;;;;;;2.22;0.90;;;14.60;71.70;;;;;;5083008;28;20020;-72
2023/11/16 12:04:38;;;;;;;3.38;0.90;;;14.70;68.40;;;;;;5082022;28;20028;-72
2023/11/16 12:07:08;;;;;;;1.25;0.63;;;14.40;70.70;;;;;;5082717;28;20028;-72
2023/11/16 12:09:40;;;;;;;5.57;0.93;;;14.20;71.10;;;;;;5083751;28;20047;-71
2023/11/16 12:12:06;;;;;;;2.75;0.68;;;;;;;;;;5082943;28;20052;-71
2023/11/16 12:14:46;;;;;;;2.28;0.68;;;14.80;61.50;;;;;;5082242;28;20032;-73
2023/11/16 12:17:12;;;;;;;1.85;0.70;;;;;;;;;;5082952;28;20038;-73
2023/11/16 12:19:42;;;;;;;2.15;1.00;;;14.90;68.40;;;;;;5081559;28;20020;-71
2023/11/16 12:22:10;;;;;;;7.90;1.15;;;15.00;66.10;;;;;;5081111;28;20024;-72
2023/11/16 12:24:36;;;;;;;5.72;1.65;;;15.90;62.80;;;;;;5080972;28;20079;-73
2023/11/16 12:27:04;;;;;;;1.52;1.00;;;16.00;58.40;;;;;;5081386;28;20032;-74
2023/11/16 12:29:30;;;;;;;1.63;1.27;;;18.10;59.30;;;;;;5081405;28;20032;-73
2023/11/16 12:31:56;;;;;;;2.47;1.30;;;18.40;55.60;;;;;;5081060;28;20324;-73
2023/11/16 12:34:25;;;;;;;3.50;1.27;;;20.00;52.00;;;;;;5079960;28;20112;-73
2023/11/16 12:36:55;;;;;;;2.03;1.30;;;21.40;49.80;;;;;;5081215;28;20020;-74
2023/11/16 12:39:25;;;;;;;3.38;1.33;;;22.80;46.60;;;;;;5081076;28;20100;-73
2023/11/16 12:41:53;;;;;;;1.85;1.30;;;23.80;43.40;;;;;;5080470;28;20024;-73
2023/11/16 12:44:18;;;;;;;2.15;1.15;;;25.00;41.10;;;;;;5081114;28;20023;-74
2023/11/16 12:46:45;;;;;;;2.40;1.42;;;26.30;39.50;;;;;;5081029;28;20259;-74
2023/11/16 12:49:11;;;;;;;1.23;0.88;;;27.70;36.70;;;;;;5081093;28;20039;-73
2023/11/16 12:51:37;;;;;;;1.98;0.60;;;29.70;34.60;;;;;;5081246;28;20063;-73
2023/11/16 12:54:03;;;;;;;0.85;0.38;;;28.60;33.30;;;;;;5081060;28;20066;-73
2023/11/16 12:56:28;;;;;;;2.40;0.65;;;23.60;41.40;;;;;;5080938;28;20216;-72
2023/11/16 12:58:54;;;;;;;2.38;0.65;;;22.20;43.90;;;;;;5080922;28;20021;-73
2023/11/16 13:01:20;;;;;;;1.73;0.70;;;20.20;47.30;;;;;;5080686;28;20137;-73
2023/11/16 13:03:46;;;;;;;3.75;0.50;;;18.60;45.80;;;;;;5079062;28;20017;-72
2023/11/16 13:06:13;;;;;;;2.15;0.70;;;;;;;;;;5080790;28;20055;-72
2023/11/16 13:08:39;;;;;;;4.07;0.80;;;;;;;;;;5080586;28;20124;-73
2023/11/16 13:11:05;;;;;;;2.42;0.65;;;18.20;50.80;;;;;;5080421;28;20209;-72
2023/11/16 13:13:31;;;;;;;8.93;1.13;;;;;;;;;;5080379;28;20030;-73
2023/11/16 13:15:59;;;;;;;6.28;1.10;;;;;;;;;;5080452;28;20060;-73
2023/11/16 13:18:24;;;;;;;1.52;0.90;;;23.30;45.40;;;;;;5080572;28;20013;-73
2023/11/16 13:20:50;;;;;;;6.85;0.95;;;25.50;42.20;;;;;;5080409;28;20339;-72